Time;durP1;ratioP1;P1;durP2;ratioP2;P2;SDS_P1;SDS_P2;PMS_P1;PMS_P2;Temp;Humidity;BMP_temperature;BMP_pressure;BME280_temperature;BME280_humidity;BME280_pressure;Samples;Min_cycle;Max_cycle;Signal;HPM_P1;HPM_P2
2022/01/16 00:04:09;;;;;;;;;;;8.10;99.90;;;;;;5129769;27;19916;-71
2022/01/16 00:06:39;;;;;;;;;;;8.10;99.90;;;;;;5125439;27;19998;-71
2022/01/16 00:09:05;;;;;;;;;;;8.10;99.90;;;;;;5127914;27;20026;-73
2022/01/16 00:11:31;;;;;;;;;;;8.10;99.90;;;;;;5124046;27;20427;-70
2022/01/16 00:13:57;;;;;;;;;;;8.10;99.90;;;;;;5129134;27;19911;-70
2022/01/16 00:16:23;;;;;;;;;;;8.00;99.90;;;;;;5122010;27;19923;-69
2022/01/16 00:18:49;;;;;;;;;;;8.00;99.90;;;;;;5127669;27;19995;-70
2022/01/16 00:21:16;;;;;;;;;;;8.00;99.90;;;;;;5123664;27;19923;-70
2022/01/16 00:23:41;;;;;;;;;;;8.00;99.90;;;;;;5129003;27;19911;-72
2022/01/16 00:26:07;;;;;;;;;;;7.90;99.90;;;;;;5125893;27;19941;-69
2022/01/16 00:28:33;;;;;;;;;;;7.90;99.90;;;;;;5126127;27;19918;-73
2022/01/16 00:30:58;;;;;;;;;;;7.90;99.90;;;;;;5116003;27;19964;-72
2022/01/16 00:33:24;;;;;;;;;;;7.90;99.90;;;;;;5129480;27;20368;-69
2022/01/16 00:35:49;;;;;;;;;;;7.90;99.90;;;;;;5122636;27;20291;-72
2022/01/16 00:38:15;;;;;;;;;;;7.90;99.90;;;;;;5121652;27;20002;-70
2022/01/16 00:40:41;;;;;;;;;;;7.90;99.90;;;;;;5129258;27;19912;-71
2022/01/16 00:43:07;;;;;;;;;;;7.80;99.90;;;;;;5128793;27;19911;-74
2022/01/16 00:45:35;;;;;;;;;;;7.80;99.90;;;;;;5124317;27;19912;-69
2022/01/16 00:48:02;;;;;;;;;;;7.80;99.90;;;;;;5119731;27;19915;-74
2022/01/16 00:50:28;;;;;;;;;;;7.80;99.90;;;;;;5121413;27;19916;-69
2022/01/16 00:52:54;;;;;;;;;;;7.70;99.90;;;;;;5121613;27;19923;-70
2022/01/16 00:55:20;;;;;;;;;;;7.70;99.90;;;;;;5122690;27;19956;-70
2022/01/16 00:57:45;;;;;;;;;;;7.80;99.90;;;;;;5127578;27;20285;-71
2022/01/16 01:00:11;;;;;;;;;;;7.80;99.90;;;;;;5128012;27;19994;-69
2022/01/16 01:02:36;;;;;;;;;;;7.80;99.90;;;;;;5125535;27;19915;-70
2022/01/16 01:05:02;;;;;;;;;;;7.80;99.90;;;;;;5121726;27;19912;-70
2022/01/16 01:07:28;;;;;;;;;;;7.70;99.90;;;;;;5125608;27;20380;-71
2022/01/16 01:09:53;;;;;;;;;;;7.70;99.90;;;;;;5128502;27;19919;-69
2022/01/16 01:12:34;;;;;;;;;;;7.70;99.90;;;;;;5126747;27;20539;-69
2022/01/16 01:15:08;;;;;;;;;;;7.60;99.90;;;;;;5127864;27;19932;-69
2022/01/16 01:17:41;;;;;;;;;;;7.60;99.90;;;;;;5124819;27;20417;-70
2022/01/16 01:20:07;;;;;;;;;;;7.50;99.90;;;;;;5120249;27;19998;-69
2022/01/16 01:22:33;;;;;;;;;;;7.50;99.90;;;;;;5126363;27;19998;-69
2022/01/16 01:24:59;;;;;;;;;;;7.50;99.90;;;;;;5119993;27;19973;-69
2022/01/16 01:27:29;;;;;;;;;;;7.60;99.90;;;;;;5118596;27;19967;-71
2022/01/16 01:30:07;;;;;;;;;;;7.60;99.90;;;;;;5116066;27;19912;-70
2022/01/16 01:32:34;;;;;;;;;;;7.70;99.90;;;;;;5121139;27;20445;-73
2022/01/16 01:34:59;;;;;;;;;;;7.70;99.90;;;;;;5121808;27;19956;-69
2022/01/16 01:37:25;;;;;;;;;;;7.70;99.90;;;;;;5120841;27;20288;-69
2022/01/16 01:39:51;;;;;;;;;;;7.70;99.90;;;;;;5129511;27;20362;-70
2022/01/16 01:42:17;;;;;;;;;;;7.70;99.90;;;;;;5122356;27;19912;-70
2022/01/16 01:52:56;;;;;;;;;;;7.60;99.90;;;;;;5124999;27;19918;-70
2022/01/16 01:55:23;;;;;;;;;;;7.60;99.90;;;;;;5124950;27;19973;-71
2022/01/16 01:57:48;;;;;;;;;;;7.60;99.90;;;;;;5125653;27;19956;-71
2022/01/16 02:00:17;;;;;;;;;;;7.60;99.90;;;;;;5119784;27;20467;-72
2022/01/16 02:05:29;;;;;;;;;;;7.60;99.90;;;;;;5123679;27;19996;-72
2022/01/16 02:07:54;;;;;;;;;;;7.60;99.90;;;;;;5133634;27;19919;-70
2022/01/16 02:10:20;;;;;;;;;;;7.60;99.90;;;;;;5123291;27;20360;-72
2022/01/16 02:12:49;;;;;;;;;;;7.60;99.90;;;;;;5124776;27;19932;-71
2022/01/16 02:31:45;;;;;;;;;;;7.50;99.90;;;;;;5121199;27;20375;-71
2022/01/16 02:34:31;;;;;;;;;;;7.60;99.90;;;;;;5124923;27;19923;-72
2022/01/16 02:37:01;;;;;;;;;;;7.60;99.90;;;;;;5120149;27;19965;-73
2022/01/16 02:39:28;;;;;;;;;;;7.60;99.90;;;;;;5119279;27;19918;-72
2022/01/16 02:41:55;;;;;;;;;;;7.50;99.90;;;;;;5127908;27;19912;-72
2022/01/16 02:44:30;;;;;;;;;;;7.50;99.90;;;;;;5125396;27;19923;-71
2022/01/16 02:46:56;;;;;;;;;;;7.40;99.90;;;;;;5114856;27;19924;-72
2022/01/16 02:49:25;;;;;;;;;;;7.50;99.90;;;;;;5117750;28;19927;-72
2022/01/16 02:51:55;;;;;;;;;;;7.30;99.90;;;;;;5121382;28;19972;-71
2022/01/16 02:54:21;;;;;;;;;;;7.30;99.90;;;;;;5126538;28;20006;-72
2022/01/16 02:56:48;;;;;;;;;;;7.20;99.90;;;;;;5116352;28;20003;-72
2022/01/16 02:59:14;;;;;;;;;;;7.20;99.90;;;;;;5117256;28;19912;-72
2022/01/16 03:01:40;;;;;;;;;;;7.00;99.90;;;;;;5118705;27;19926;-73
2022/01/16 03:04:06;;;;;;;;;;;7.00;99.90;;;;;;5117764;28;20280;-73
2022/01/16 03:06:32;;;;;;;;;;;7.10;99.90;;;;;;5127463;28;20242;-72
2022/01/16 03:08:57;;;;;;;;;;;7.20;99.90;;;;;;5127076;27;20021;-70
2022/01/16 03:11:36;;;;;;;;;;;7.30;99.90;;;;;;5125258;28;20003;-72
2022/01/16 03:14:03;;;;;;;;;;;7.20;99.90;;;;;;5123634;27;19918;-71
2022/01/16 03:16:28;;;;;;;;;;;7.20;99.90;;;;;;5117867;28;19911;-72
2022/01/16 03:21:54;;;;;;;;;;;7.20;99.90;;;;;;5124721;28;19917;-72
2022/01/16 03:24:24;;;;;;;;;;;7.20;99.90;;;;;;5126471;27;19911;-72
2022/01/16 03:26:51;;;;;;;;;;;7.30;99.90;;;;;;5116104;28;20015;-71
2022/01/16 03:29:17;;;;;;;;;;;7.30;99.90;;;;;;5119886;28;19919;-72
2022/01/16 03:31:42;;;;;;;;;;;7.30;99.90;;;;;;5122834;28;19911;-72
2022/01/16 03:34:08;;;;;;;;;;;7.10;99.90;;;;;;5127173;27;20433;-72
2022/01/16 03:36:34;;;;;;;;;;;7.00;99.90;;;;;;5123897;27;19920;-72
2022/01/16 03:38:59;;;;;;;;;;;7.00;99.90;;;;;;5117912;27;20018;-72
2022/01/16 03:41:27;;;;;;;;;;;7.00;99.90;;;;;;5124210;28;20355;-73
2022/01/16 03:43:54;;;;;;;;;;;7.00;99.90;;;;;;5121162;27;20366;-72
2022/01/16 03:46:19;;;;;;;;;;;7.00;99.90;;;;;;5123834;27;19915;-73
2022/01/16 03:48:45;;;;;;;;;;;7.00;99.90;;;;;;5121227;27;19925;-72
2022/01/16 03:51:11;;;;;;;;;;;6.80;99.90;;;;;;5116536;27;19927;-73
2022/01/16 03:53:38;;;;;;;;;;;6.80;99.90;;;;;;5122283;27;19919;-73
2022/01/16 03:56:03;;;;;;;;;;;6.80;99.90;;;;;;5117393;27;19990;-72
2022/01/16 03:58:29;;;;;;;;;;;6.70;99.90;;;;;;5113963;27;20010;-72
2022/01/16 04:00:55;;;;;;;;;;;6.80;99.90;;;;;;5123917;27;19964;-72
2022/01/16 04:03:20;;;;;;;;;;;6.80;99.90;;;;;;5123926;27;19930;-72
2022/01/16 04:05:46;;;;;;;;;;;6.70;99.90;;;;;;5129207;27;19924;-72
2022/01/16 04:08:11;;;;;;;;;;;6.70;99.90;;;;;;5129318;27;20007;-71
2022/01/16 04:10:37;;;;;;;;;;;6.70;99.90;;;;;;5131772;27;19921;-73
2022/01/16 04:13:03;;;;;;;;;;;6.70;99.90;;;;;;5122333;27;19998;-72
2022/01/16 04:15:31;;;;;;;;;;;6.60;99.90;;;;;;5131143;27;19911;-72
2022/01/16 04:17:57;;;;;;;;;;;6.60;99.90;;;;;;5128567;27;19994;-72
2022/01/16 04:20:23;;;;;;;;;;;6.60;99.90;;;;;;5126766;27;19998;-72
2022/01/16 04:22:49;;;;;;;;;;;6.70;99.90;;;;;;5126826;27;20483;-72
2022/01/16 04:25:14;;;;;;;;;;;6.90;99.90;;;;;;5120674;27;19916;-71
2022/01/16 04:27:40;;;;;;;;;;;6.90;99.90;;;;;;5130315;27;20313;-72
2022/01/16 04:30:06;;;;;;;;;;;6.90;99.90;;;;;;5120630;27;19957;-72
2022/01/16 04:32:32;;;;;;;;;;;6.80;99.90;;;;;;5137000;27;19911;-72
2022/01/16 04:34:58;;;;;;;;;;;6.80;99.90;;;;;;5134793;27;19934;-72
2022/01/16 04:37:23;;;;;;;;;;;6.80;99.90;;;;;;5117351;27;19915;-72
2022/01/16 04:39:51;;;;;;;;;;;6.70;99.90;;;;;;5111317;27;19916;-72
2022/01/16 04:45:02;;;;;;;;;;;6.70;99.90;;;;;;5123964;27;19938;-71
2022/01/16 04:47:29;;;;;;;;;;;6.70;99.90;;;;;;5126633;27;20062;-72
2022/01/16 04:49:54;;;;;;;;;;;6.70;99.90;;;;;;5125283;27;19920;-72
2022/01/16 04:52:20;;;;;;;;;;;6.70;99.90;;;;;;5113388;27;20280;-72
2022/01/16 04:54:45;;;;;;;;;;;6.60;99.90;;;;;;5126183;27;19911;-72
2022/01/16 04:57:13;;;;;;;;;;;6.60;99.90;;;;;;5121495;27;19916;-71
2022/01/16 04:59:39;;;;;;;;;;;6.60;99.90;;;;;;5123501;27;19911;-73
2022/01/16 05:02:04;;;;;;;;;;;6.60;99.90;;;;;;5129076;27;20030;-71
2022/01/16 05:04:30;;;;;;;;;;;6.60;99.90;;;;;;5127065;27;19961;-73
2022/01/16 05:06:56;;;;;;;;;;;6.60;99.90;;;;;;5128613;27;19915;-71
2022/01/16 05:09:21;;;;;;;;;;;6.50;99.90;;;;;;5129207;27;19918;-71
2022/01/16 05:11:53;;;;;;;;;;;6.50;99.90;;;;;;5127269;27;19931;-72
2022/01/16 05:17:03;;;;;;;;;;;6.30;99.90;;;;;;5122237;27;19931;-71
2022/01/16 05:19:29;;;;;;;;;;;6.30;99.90;;;;;;5124983;27;20002;-71
2022/01/16 05:21:54;;;;;;;;;;;6.30;99.90;;;;;;5122777;27;20060;-72
2022/01/16 05:24:21;;;;;;;;;;;6.20;99.90;;;;;;5127505;27;19981;-72
2022/01/16 05:26:47;;;;;;;;;;;6.20;99.90;;;;;;5126280;27;19959;-71
2022/01/16 05:29:13;;;;;;;;;;;6.20;99.90;;;;;;5126251;27;19942;-72
2022/01/16 05:31:44;;;;;;;;;;;6.10;99.90;;;;;;5125682;27;20011;-72
2022/01/16 05:34:19;;;;;;;;;;;6.10;99.90;;;;;;5127623;27;20392;-73
2022/01/16 05:36:45;;;;;;;;;;;6.10;99.90;;;;;;5121645;27;19911;-72
2022/01/16 05:39:11;;;;;;;;;;;6.10;99.90;;;;;;5126729;27;20002;-72
2022/01/16 05:41:37;;;;;;;;;;;6.10;99.90;;;;;;5131943;27;20027;-71
2022/01/16 05:44:03;;;;;;;;;;;6.00;99.90;;;;;;5122549;27;19911;-71
2022/01/16 05:46:28;;;;;;;;;;;6.00;99.90;;;;;;5123607;27;19922;-73
2022/01/16 05:48:57;;;;;;;;;;;5.90;99.90;;;;;;5122668;27;19919;-72
2022/01/16 05:51:22;;;;;;;;;;;5.90;99.90;;;;;;5126231;27;19922;-73
2022/01/16 05:53:51;;;;;;;;;;;5.80;99.90;;;;;;5129142;27;20300;-73
2022/01/16 05:56:16;;;;;;;;;;;5.80;99.90;;;;;;5121319;27;19998;-73
2022/01/16 05:58:42;;;;;;;;;;;5.70;99.90;;;;;;5121494;27;19912;-72
2022/01/16 06:01:08;;;;;;;;;;;5.50;99.90;;;;;;5127344;27;19951;-73
2022/01/16 06:03:34;;;;;;;;;;;5.50;99.90;;;;;;5122040;27;20337;-73
2022/01/16 06:05:59;;;;;;;;;;;5.50;99.90;;;;;;5124352;27;19947;-72
2022/01/16 06:08:25;;;;;;;;;;;5.50;99.90;;;;;;5126870;27;19964;-72
2022/01/16 06:10:51;;;;;;;;;;;5.60;99.90;;;;;;5125686;27;19991;-75
2022/01/16 06:13:16;;;;;;;;;;;5.60;99.90;;;;;;5123733;27;19933;-72
2022/01/16 06:15:42;;;;;;;;;;;5.60;99.90;;;;;;5126773;27;19919;-73
2022/01/16 06:18:07;;;;;;;;;;;5.60;99.90;;;;;;5131097;27;19937;-73
2022/01/16 06:20:33;;;;;;;;;;;5.50;99.90;;;;;;5126524;27;19946;-73
2022/01/16 06:23:00;;;;;;;;;;;5.50;99.90;;;;;;5121205;27;19911;-72
2022/01/16 06:25:26;;;;;;;;;;;5.60;99.90;;;;;;5123045;27;19912;-73
2022/01/16 06:27:52;;;;;;;;;;;5.50;99.90;;;;;;5129241;27;20395;-73
2022/01/16 06:30:18;;;;;;;;;;;5.60;99.90;;;;;;5124877;27;19912;-72
2022/01/16 06:32:44;;;;;;;;;;;5.70;99.90;;;;;;5118543;27;19919;-72
2022/01/16 06:35:10;;;;;;;;;;;5.70;99.90;;;;;;5122549;27;19922;-72
2022/01/16 06:37:36;;;;;;;;;;;5.80;99.90;;;;;;5117317;27;19968;-72
2022/01/16 06:40:02;;;;;;;;;;;5.80;99.90;;;;;;5121191;27;19983;-72
2022/01/16 06:42:28;;;;;;;;;;;5.80;99.90;;;;;;5123194;27;19942;-72
2022/01/16 06:44:54;;;;;;;;;;;5.80;99.90;;;;;;5130082;27;19963;-72
2022/01/16 06:47:19;;;;;;;;;;;5.80;99.90;;;;;;5120912;27;19915;-71
2022/01/16 06:49:45;;;;;;;;;;;5.80;99.90;;;;;;5120456;28;19912;-72
2022/01/16 06:52:10;;;;;;;;;;;5.80;99.90;;;;;;5117427;27;19920;-71
2022/01/16 06:54:36;;;;;;;;;;;5.80;99.90;;;;;;5122755;28;20369;-72
2022/01/16 06:57:02;;;;;;;;;;;5.80;99.90;;;;;;5124521;28;20361;-72
2022/01/16 06:59:27;;;;;;;;;;;5.80;99.90;;;;;;5124517;28;19912;-72
2022/01/16 07:01:53;;;;;;;;;;;5.80;99.90;;;;;;5124161;27;19911;-73
2022/01/16 07:04:18;;;;;;;;;;;5.90;99.90;;;;;;5126412;27;19919;-71
2022/01/16 07:06:44;;;;;;;;;;;6.00;99.90;;;;;;5121265;27;20010;-72
2022/01/16 07:09:10;;;;;;;;;;;6.00;99.90;;;;;;5126703;27;20265;-71
2022/01/16 07:11:35;;;;;;;;;;;6.10;99.90;;;;;;5122874;27;19942;-72
2022/01/16 07:14:01;;;;;;;;;;;6.10;99.90;;;;;;5124870;27;20022;-72
2022/01/16 07:16:26;;;;;;;;;;;6.20;99.90;;;;;;5128164;27;19915;-72
2022/01/16 07:18:52;;;;;;;;;;;6.20;99.90;;;;;;5122228;28;19912;-72
2022/01/16 07:21:17;;;;;;;;;;;6.30;99.90;;;;;;5129347;28;19911;-73
2022/01/16 07:23:49;;;;;;;;;;;6.30;99.90;;;;;;5122688;27;19915;-71
2022/01/16 07:26:15;;;;;;;;;;;6.40;99.90;;;;;;5135607;27;19972;-71
2022/01/16 07:28:41;;;;;;;;;;;6.40;99.90;;;;;;5128692;27;19939;-72
2022/01/16 07:31:07;;;;;;;;;;;6.40;99.90;;;;;;5132910;27;20086;-71
2022/01/16 07:33:32;;;;;;;;;;;6.40;99.90;;;;;;5120335;27;19912;-72
2022/01/16 07:35:58;;;;;;;;;;;6.40;99.90;;;;;;5123009;27;19912;-71
2022/01/16 07:38:24;;;;;;;;;;;6.40;99.90;;;;;;5127406;27;20050;-73
2022/01/16 07:40:49;;;;;;;;;;;6.50;99.90;;;;;;5130500;27;19915;-75
2022/01/16 07:43:15;;;;;;;;;;;6.60;99.90;;;;;;5129203;27;19912;-73
2022/01/16 07:45:41;;;;;;;;;;;6.60;99.90;;;;;;5132046;27;19911;-72
2022/01/16 07:48:07;;;;;;;;;;;6.60;99.90;;;;;;5128170;27;19915;-73
2022/01/16 07:50:33;;;;;;;;;;;6.70;99.90;;;;;;5124719;27;19912;-73
2022/01/16 07:52:59;;;;;;;;;;;6.80;99.90;;;;;;5127573;27;19912;-72
2022/01/16 07:55:26;;;;;;;;;;;6.90;99.90;;;;;;5125009;27;19916;-73
2022/01/16 07:57:52;;;;;;;;;;;7.00;99.90;;;;;;5136118;27;19912;-72
2022/01/16 08:00:19;;;;;;;;;;;7.10;99.90;;;;;;5127004;27;19919;-72
2022/01/16 08:02:44;;;;;;;;;;;7.10;99.90;;;;;;5126062;27;19927;-73
2022/01/16 08:05:10;;;;;;;;;;;7.20;99.90;;;;;;5131500;27;19964;-72
2022/01/16 08:07:36;;;;;;;;;;;7.30;99.90;;;;;;5123055;27;19958;-71
2022/01/16 08:10:01;;;;;;;;;;;7.30;99.90;;;;;;5121879;27;19911;-72
2022/01/16 08:12:27;;;;;;;;;;;7.50;99.90;;;;;;5132892;27;20372;-72
2022/01/16 08:14:52;;;;;;;;;;;7.50;99.90;;;;;;5126632;27;19911;-73
2022/01/16 08:17:18;;;;;;;;;;;7.60;99.90;;;;;;5122673;27;19965;-74
2022/01/16 08:19:44;;;;;;;;;;;7.70;99.90;;;;;;5125539;27;19922;-72
2022/01/16 08:22:10;;;;;;;;;;;7.70;99.90;;;;;;5122867;27;20365;-73
2022/01/16 08:24:36;;;;;;;;;;;7.80;99.90;;;;;;5128626;27;20041;-73
2022/01/16 08:27:03;;;;;;;;;;;7.80;99.90;;;;;;5126154;27;19920;-73
2022/01/16 08:29:28;;;;;;;;;;;7.90;99.90;;;;;;5130119;27;19964;-73
2022/01/16 08:31:54;;;;;;;;;;;8.00;99.90;;;;;;5122920;27;19919;-73
2022/01/16 08:34:20;;;;;;;;;;;8.10;99.90;;;;;;5118494;27;19911;-73
2022/01/16 08:36:45;;;;;;;;;;;8.40;99.90;;;;;;5117326;27;19912;-73
2022/01/16 08:39:11;;;;;;;;;;;8.60;99.90;;;;;;5129562;27;19912;-73
2022/01/16 08:41:37;;;;;;;;;;;8.70;99.90;;;;;;5127881;27;20065;-73
2022/01/16 08:44:06;;;;;;;;;;;8.70;99.90;;;;;;5122807;27;20274;-72
2022/01/16 08:46:31;;;;;;;;;;;8.70;99.90;;;;;;5128676;27;19920;-73
2022/01/16 08:48:57;;;;;;;;;;;8.80;99.90;;;;;;5123203;27;19911;-72
2022/01/16 08:51:23;;;;;;;;;;;8.80;99.90;;;;;;5131014;27;19912;-72
2022/01/16 08:53:49;;;;;;;;;;;8.90;99.90;;;;;;5125077;27;19912;-74
2022/01/16 08:56:15;;;;;;;;;;;9.00;99.90;;;;;;5132268;27;19934;-72
2022/01/16 08:58:41;;;;;;;;;;;9.10;99.90;;;;;;5128638;27;20361;-72
2022/01/16 09:01:06;;;;;;;;;;;9.30;99.90;;;;;;5133720;27;19915;-74
2022/01/16 09:03:33;;;;;;;;;;;9.40;99.90;;;;;;5118802;27;19962;-75
2022/01/16 09:05:58;;;;;;;;;;;9.50;99.90;;;;;;5133700;27;19938;-73
2022/01/16 09:08:24;;;;;;;;;;;9.60;99.90;;;;;;5126106;27;20369;-73
2022/01/16 09:10:50;;;;;;;;;;;9.70;99.90;;;;;;5131697;27;19911;-73
2022/01/16 09:13:16;;;;;;;;;;;9.70;99.90;;;;;;5128275;27;19915;-73
2022/01/16 09:15:51;;;;;;;;;;;9.70;99.90;;;;;;5125502;27;19908;-72
2022/01/16 09:18:25;;;;;;;;;;;9.80;99.90;;;;;;5127412;27;19911;-73
2022/01/16 09:20:53;;;;;;;;;;;10.00;99.90;;;;;;5121951;27;19912;-68
2022/01/16 09:23:20;;;;;;;;;;;10.00;99.90;;;;;;5122171;27;19911;-66
2022/01/16 09:25:46;;;;;;;;;;;10.00;99.90;;;;;;5131633;27;19915;-69
2022/01/16 09:28:11;;;;;;;;;;;10.10;99.90;;;;;;5118446;27;19915;-67
2022/01/16 09:30:37;;;;;;;;;;;10.20;99.90;;;;;;5125524;27;19919;-68
2022/01/16 09:33:03;;;;;;;;;;;10.20;99.90;;;;;;5117000;27;20434;-68
2022/01/16 09:35:31;;;;;;;;;;;10.30;99.90;;;;;;5121581;27;20318;-68
2022/01/16 09:37:58;;;;;;;;;;;10.40;99.90;;;;;;5118781;27;19998;-69
2022/01/16 09:40:23;;;;;;;;;;;10.50;99.90;;;;;;5120509;27;19911;-67
2022/01/16 09:42:52;;;;;;;;;;;10.50;99.90;;;;;;5116738;27;20343;-67
2022/01/16 09:45:22;;;;;;;;;;;10.60;99.90;;;;;;5118606;27;19911;-68
2022/01/16 09:47:48;;;;;;;;;;;10.60;99.90;;;;;;5122527;27;19962;-67
2022/01/16 09:50:21;;;;;;;;;;;10.70;99.90;;;;;;5131612;27;20226;-66
2022/01/16 09:52:47;;;;;;;;;;;10.80;99.90;;;;;;5132777;27;19938;-68
2022/01/16 09:55:13;;;;;;;;;;;10.90;99.90;;;;;;5127718;27;19911;-68
2022/01/16 09:57:39;;;;;;;;;;;10.90;99.90;;;;;;5125096;27;20006;-69
2022/01/16 10:00:07;;;;;;;;;;;10.90;99.90;;;;;;5116358;27;20377;-71
2022/01/16 10:02:32;;;;;;;;;;;11.10;99.90;;;;;;5127690;27;20322;-70
2022/01/16 10:04:58;;;;;;;;;;;11.10;99.90;;;;;;5122079;27;19911;-68
2022/01/16 10:07:24;;;;;;;;;;;11.10;99.90;;;;;;5129712;27;19923;-70
2022/01/16 10:10:05;;;;;;;;;;;11.10;99.90;;;;;;5135291;27;19919;-71
2022/01/16 10:12:32;;;;;;;;;;;11.20;99.90;;;;;;5121307;27;20392;-71
2022/01/16 10:15:13;;;;;;;;;;;11.30;99.90;;;;;;5113863;27;19907;-70
2022/01/16 10:17:43;;;;;;;;;;;11.30;99.90;;;;;;5118245;27;20277;-71
2022/01/16 10:20:09;;;;;;;;;;;11.40;99.90;;;;;;5132040;27;19934;-71
2022/01/16 10:22:43;;;;;;;;;;;11.50;99.90;;;;;;5120385;27;19912;-72
2022/01/16 10:25:09;;;;;;;;;;;11.50;99.90;;;;;;5114253;27;19918;-71
2022/01/16 10:27:36;;;;;;;;;;;11.60;99.90;;;;;;5125664;27;19945;-72
2022/01/16 10:30:07;;;;;;;;;;;11.70;99.90;;;;;;5132424;27;19915;-71
2022/01/16 10:32:35;;;;;;;;;;;11.60;99.90;;;;;;5129991;27;20392;-70
2022/01/16 10:35:12;;;;;;;;;;;11.60;99.90;;;;;;5122419;27;20432;-66
2022/01/16 10:37:45;;;;;;;;;;;11.60;99.90;;;;;;5121941;27;19907;-68
2022/01/16 10:40:16;;;;;;;;;;;11.50;99.90;;;;;;5123352;27;19918;-67
2022/01/16 10:42:48;;;;;;;;;;;11.40;99.90;;;;;;5127905;27;19977;-71
2022/01/16 10:45:14;;;;;;;;;;;11.50;99.90;;;;;;5121482;27;19911;-69
2022/01/16 10:47:41;;;;;;;;;;;11.60;99.90;;;;;;5130627;27;20345;-70
2022/01/16 10:50:06;;;;;;;;;;;11.50;99.90;;;;;;5125503;27;19907;-68
2022/01/16 10:52:33;;;;;;;;;;;11.50;99.90;;;;;;5121280;27;20002;-70
2022/01/16 10:55:06;;;;;;;;;;;11.50;99.90;;;;;;5123132;28;19953;-70
2022/01/16 10:57:31;;;;;;;;;;;11.40;99.90;;;;;;5117538;27;20291;-68
2022/01/16 11:00:17;;;;;;;;;;;11.30;99.90;;;;;;5134779;27;19917;-68
2022/01/16 11:02:44;;;;;;;;;;;11.30;99.90;;;;;;5131930;27;19916;-68
2022/01/16 11:05:14;;;;;;;;;;;11.30;99.90;;;;;;5134398;27;19919;-68
2022/01/16 11:07:43;;;;;;;;;;;11.30;99.90;;;;;;5126619;27;19968;-68
2022/01/16 11:10:23;;;;;;;;;;;11.40;99.90;;;;;;5134393;27;19914;-71
2022/01/16 11:12:49;;;;;;;;;;;11.40;99.90;;;;;;5127053;27;20333;-68
2022/01/16 11:15:16;;;;;;;;;;;11.40;99.90;;;;;;5132681;27;19911;-69
2022/01/16 11:17:41;;;;;;;;;;;11.40;99.90;;;;;;5129132;27;19963;-69
2022/01/16 11:20:07;;;;;;;;;;;11.50;99.90;;;;;;5123379;27;19912;-70
2022/01/16 11:22:45;;;;;;;;;;;11.60;99.90;;;;;;5130948;27;19912;-70
2022/01/16 11:25:23;;;;;;;;;;;11.60;99.90;;;;;;5125625;27;20010;-69
2022/01/16 11:27:49;;;;;;;;;;;11.60;99.90;;;;;;5118114;27;19915;-67
2022/01/16 11:30:15;;;;;;;;;;;11.50;99.90;;;;;;5128736;27;19950;-68
2022/01/16 11:32:40;;;;;;;;;;;11.50;99.90;;;;;;5131034;27;19951;-69
2022/01/16 11:35:07;;;;;;;;;;;11.50;99.90;;;;;;5128388;27;20436;-69
2022/01/16 11:37:32;;;;;;;;;;;11.50;99.90;;;;;;5127330;27;19915;-70
2022/01/16 11:40:18;;;;;;;;;;;11.50;99.90;;;;;;5125166;27;19912;-70
2022/01/16 11:42:43;;;;;;;;;;;11.50;99.90;;;;;;5115410;27;19955;-68
2022/01/16 11:45:09;;;;;;;;;;;11.40;99.90;;;;;;5127256;27;19919;-69
2022/01/16 11:47:35;;;;;;;;;;;11.40;99.90;;;;;;5127586;27;19919;-69
2022/01/16 11:50:10;;;;;;;;;;;11.50;99.90;;;;;;5134923;27;19923;-67
2022/01/16 11:52:41;;;;;;;;;;;11.50;99.90;;;;;;5129693;27;20317;-70
2022/01/16 11:55:08;;;;;;;;;;;11.30;99.90;;;;;;5122394;27;19911;-68
2022/01/16 11:57:35;;;;;;;;;;;11.40;99.90;;;;;;5128008;27;20297;-71
2022/01/16 12:00:08;;;;;;;;;;;11.40;99.90;;;;;;5134476;27;19914;-69
2022/01/16 12:02:38;;;;;;;;;;;11.50;99.90;;;;;;5126786;27;20026;-70
2022/01/16 12:05:04;;;;;;;;;;;11.40;99.90;;;;;;5130070;27;19919;-71
2022/01/16 12:07:36;;;;;;;;;;;11.50;99.90;;;;;;5130816;27;19915;-68
2022/01/16 12:10:05;;;;;;;;;;;11.50;99.90;;;;;;5113735;27;20461;-70
2022/01/16 12:12:31;;;;;;;;;;;11.40;99.90;;;;;;5128610;27;19952;-69
2022/01/16 12:15:01;;;;;;;;;;;11.50;99.90;;;;;;5133319;27;19919;-68
2022/01/16 12:17:29;;;;;;;;;;;11.60;99.90;;;;;;5125668;27;20414;-69
2022/01/16 12:19:55;;;;;;;;;;;11.50;99.90;;;;;;5126025;27;19915;-68
2022/01/16 12:23:00;;;;;;;;;;;11.40;99.90;;;;;;5124137;27;20319;-70
2022/01/16 12:25:25;;;;;;;;;;;11.40;99.90;;;;;;5037531;28;19912;-67
2022/01/16 12:27:51;;;;;;;;;;;11.40;99.90;;;;;;5050071;28;19913;-71
2022/01/16 12:30:33;;;;;;;;;;;11.40;99.90;;;;;;5077141;27;20022;-67
2022/01/16 12:33:03;;;;;;;;;;;11.50;99.90;;;;;;5117199;27;19966;-71
2022/01/16 12:35:50;;;;;;;;;;;11.50;99.90;;;;;;5125632;27;19926;-67
2022/01/16 12:38:17;;;;;;;;;;;11.40;99.90;;;;;;5117979;27;20057;-68
2022/01/16 12:40:44;;;;;;;;;;;11.50;99.90;;;;;;5122128;27;19953;-69
2022/01/16 12:43:15;;;;;;;;;;;11.40;99.90;;;;;;5128720;27;19927;-72
2022/01/16 12:45:41;;;;;;;;;;;11.40;99.90;;;;;;5133841;27;19943;-70
2022/01/16 12:48:07;;;;;;;;;;;11.30;99.90;;;;;;5117463;27;19934;-70
2022/01/16 12:50:34;;;;;;;;;;;11.20;99.90;;;;;;5117327;27;20101;-69
2022/01/16 12:53:00;;;;;;;;;;;11.10;99.90;;;;;;5131195;27;19911;-69
2022/01/16 12:55:29;;;;;;;;;;;11.10;99.90;;;;;;5134410;27;19914;-69
2022/01/16 12:58:13;;;;;;;;;;;11.10;99.90;;;;;;5129173;27;19916;-69
2022/01/16 13:00:56;;;;;;;;;;;11.10;99.90;;;;;;5126903;27;19951;-71
2022/01/16 13:03:25;;;;;;;;;;;11.00;99.90;;;;;;5124820;27;19923;-69
2022/01/16 13:05:51;;;;;;;;;;;11.00;99.90;;;;;;5128662;27;19919;-70
2022/01/16 13:08:16;;;;;;;;;;;10.90;99.90;;;;;;5119747;27;19912;-75
2022/01/16 13:10:42;;;;;;;;;;;10.90;99.90;;;;;;5135422;27;19914;-69
2022/01/16 13:13:11;;;;;;;;;;;10.90;99.90;;;;;;5133830;27;19950;-70
2022/01/16 13:15:37;;;;;;;;;;;10.70;99.90;;;;;;5120876;27;20353;-69
2022/01/16 13:18:09;;;;;;;;;;;10.60;99.90;;;;;;5127244;27;19918;-69
2022/01/16 13:20:35;;;;;;;;;;;10.60;99.90;;;;;;5132131;27;20300;-69
2022/01/16 13:23:00;;;;;;;;;;;10.50;99.90;;;;;;5133979;27;19918;-70
2022/01/16 13:25:26;;;;;;;;;;;10.50;99.90;;;;;;5133139;27;19915;-69
2022/01/16 13:27:51;;;;;;;;;;;10.40;99.90;;;;;;5129379;27;19964;-69
2022/01/16 13:30:26;;;;;;;;;;;10.50;99.90;;;;;;5128941;27;19972;-68
2022/01/16 13:32:52;;;;;;;;;;;10.50;99.90;;;;;;5128438;27;19908;-68
2022/01/16 13:35:18;;;;;;;;;;;10.50;99.90;;;;;;5130304;27;19911;-70
2022/01/16 13:37:44;;;;;;;;;;;10.40;99.90;;;;;;5130026;27;19915;-69
2022/01/16 13:40:10;;;;;;;;;;;10.50;99.90;;;;;;5129359;27;19963;-68
2022/01/16 13:45:14;;;;;;;;;;;10.60;99.90;;;;;;5130601;27;19919;-69
2022/01/16 13:47:48;;;;;;;;;;;10.50;99.90;;;;;;5132642;27;19911;-69
2022/01/16 13:50:13;;;;;;;;;;;10.50;99.90;;;;;;5129559;27;19964;-69
2022/01/16 13:52:49;;;;;;;;;;;10.40;99.90;;;;;;5132893;27;20002;-70
2022/01/16 13:55:15;;;;;;;;;;;10.40;99.90;;;;;;5130789;27;19915;-68
2022/01/16 13:57:41;;;;;;;;;;;10.50;99.90;;;;;;5129319;27;19926;-69
2022/01/16 14:00:08;;;;;;;;;;;10.50;99.90;;;;;;5126036;27;19918;-69
2022/01/16 14:02:34;;;;;;;;;;;10.40;99.90;;;;;;5132439;27;20330;-69
2022/01/16 14:05:01;;;;;;;;;;;10.50;99.90;;;;;;5131240;27;19923;-69
2022/01/16 14:07:28;;;;;;;;;;;10.50;99.90;;;;;;5130435;27;20094;-68
2022/01/16 14:09:55;;;;;;;;;;;10.50;99.90;;;;;;5129058;27;19931;-69
2022/01/16 14:12:22;;;;;;;;;;;10.40;99.90;;;;;;5130493;27;20317;-67
2022/01/16 14:14:49;;;;;;;;;;;10.40;99.90;;;;;;5133124;27;20005;-70
2022/01/16 14:22:16;;;;;;;;;;;10.40;99.90;;;;;;5129777;27;19951;-69
2022/01/16 14:24:41;;;;;;;;;;;10.50;99.90;;;;;;5123571;27;20322;-68
2022/01/16 14:27:08;;;;;;;;;;;10.50;99.90;;;;;;5133865;27;20002;-68
2022/01/16 14:29:35;;;;;;;;;;;10.50;99.90;;;;;;5131601;27;19918;-70
2022/01/16 14:32:02;;;;;;;;;;;10.40;99.90;;;;;;5132328;27;20002;-68
2022/01/16 14:34:28;;;;;;;;;;;10.40;99.90;;;;;;5127294;27;19916;-69
2022/01/16 14:36:53;;;;;;;;;;;10.40;99.90;;;;;;5129815;27;20383;-69
2022/01/16 14:39:20;;;;;;;;;;;10.40;99.90;;;;;;5121859;27;20385;-70
2022/01/16 14:41:49;;;;;;;;;;;10.40;99.90;;;;;;5132673;27;19915;-69
2022/01/16 14:44:15;;;;;;;;;;;10.40;99.90;;;;;;5129848;27;19915;-68
2022/01/16 14:46:41;;;;;;;;;;;10.50;99.90;;;;;;5131236;27;19911;-69
2022/01/16 14:49:06;;;;;;;;;;;10.50;99.90;;;;;;5130186;27;19918;-69
2022/01/16 14:51:33;;;;;;;;;;;10.50;99.90;;;;;;5125371;27;20083;-69
2022/01/16 14:54:02;;;;;;;;;;;10.40;99.90;;;;;;5123528;27;19991;-67
2022/01/16 14:56:28;;;;;;;;;;;10.40;99.90;;;;;;5124036;27;20233;-68
2022/01/16 14:58:53;;;;;;;;;;;10.50;99.90;;;;;;5130811;28;19918;-68
2022/01/16 15:01:19;;;;;;;;;;;10.50;99.90;;;;;;5132529;28;19911;-69
2022/01/16 15:03:44;;;;;;;;;;;10.40;99.90;;;;;;5132010;27;20031;-68
2022/01/16 15:06:10;;;;;;;;;;;10.50;99.90;;;;;;5125956;28;19968;-69
2022/01/16 15:08:37;;;;;;;;;;;10.30;99.90;;;;;;5128470;28;19923;-68
2022/01/16 15:11:03;;;;;;;;;;;10.20;99.90;;;;;;5128637;28;20010;-68